Time;durP1;ratioP1;P1;durP2;ratioP2;P2;SDS_P1;SDS_P2;PMS_P1;PMS_P2;Temp;Humidity;BMP_temperature;BMP_pressure;BME280_temperature;BME280_humidity;BME280_pressure;Samples;Min_cycle;Max_cycle;Signal;HPM_P1;HPM_P2
2022/08/18 04:32:03;;;;;;;;;6.25;4.75;;;;;-147.14;100.00;58812.66;5263918;22;8899;-68
2022/08/18 04:34:29;;;;;;;;;4.00;4.00;;;;;-147.14;100.00;58812.66;5054070;28;8864;-67
2022/08/18 04:36:55;;;;;;;;;4.67;4.00;;;;;-147.14;100.00;58812.66;5057960;28;8919;-67
2022/08/18 04:39:21;;;;;;;;;5.67;5.67;;;;;-147.14;100.00;58812.66;5056209;28;11498;-67
2022/08/18 04:41:47;;;;;;;;;3.75;3.75;;;;;-147.14;100.00;58812.66;5063723;28;8808;-67
2022/08/18 04:44:13;;;;;;;;;3.67;3.67;;;;;-147.14;100.00;58812.66;5054084;28;8879;-67
2022/08/18 04:46:47;;;;;;;;;5.00;5.00;;;;;-147.14;100.00;58812.66;5060880;28;8805;-67
2022/08/18 04:49:14;;;;;;;;;4.00;4.00;;;;;-147.14;100.00;58812.66;5053330;28;8895;-67
2022/08/18 04:51:42;;;;;;;;;4.00;4.00;;;;;-147.14;100.00;58812.66;5054705;28;8804;-68
2022/08/18 04:54:08;;;;;;;;;3.25;3.25;;;;;-147.14;100.00;58812.66;5054893;28;8812;-68
2022/08/18 04:56:37;;;;;;;;;5.33;5.33;;;;;-147.14;100.00;58812.66;5053987;28;36291;-68
2022/08/18 04:59:12;;;;;;;;;2.75;2.75;;;;;-147.14;100.00;58812.66;5053455;28;8800;-68
2022/08/18 05:01:44;;;;;;;;;5.75;5.75;;;;;-147.14;100.00;58812.66;5054016;28;9764;-68
2022/08/18 05:04:12;;;;;;;;;5.25;4.50;;;;;-147.14;100.00;58812.66;5055799;28;8800;-68
2022/08/18 05:06:37;;;;;;;;;6.00;5.00;;;;;-147.14;100.00;58812.66;5053461;28;8926;-68
2022/08/18 05:09:06;;;;;;;;;6.00;6.00;;;;;-147.14;100.00;58812.66;5055043;28;8879;-68
2022/08/18 05:11:33;;;;;;;;;6.75;5.50;;;;;-147.14;100.00;58812.66;5055670;28;8772;-68
2022/08/18 05:14:00;;;;;;;;;5.00;5.00;;;;;-147.14;100.00;58812.66;5058792;28;8809;-68
2022/08/18 05:16:26;;;;;;;;;7.00;5.00;;;;;-147.14;100.00;58812.66;5054602;28;8789;-68
2022/08/18 05:18:54;;;;;;;;;4.50;4.50;;;;;-147.14;100.00;58812.66;5057683;28;8782;-68
2022/08/18 05:21:21;;;;;;;;;5.00;4.50;;;;;-147.14;100.00;58812.66;5059736;28;8766;-68
2022/08/18 05:23:48;;;;;;;;;4.00;4.00;;;;;-147.14;100.00;58812.66;5045826;28;8805;-68
2022/08/18 05:26:15;;;;;;;;;5.00;4.00;;;;;-147.14;100.00;58812.66;5065678;28;8816;-68
2022/08/18 05:28:41;;;;;;;;;4.00;4.00;;;;;-147.14;100.00;58812.66;5063510;28;8832;-70
2022/08/18 05:31:12;;;;;;;;;7.00;7.00;;;;;-147.14;100.00;58812.66;5053851;28;8793;-68
2022/08/18 05:33:41;;;;;;;;;5.25;5.25;;;;;-147.14;100.00;58812.66;5062389;28;8800;-68
2022/08/18 05:36:33;;;;;;;;;6.75;5.75;;;;;-147.14;100.00;58812.66;5064310;28;8782;-68
2022/08/18 05:39:08;;;;;;;;;7.75;7.00;;;;;-147.14;100.00;58812.66;5053875;28;8910;-69
2022/08/18 05:41:37;;;;;;;;;6.25;6.25;;;;;-147.14;100.00;58812.66;5039793;28;8769;-68
2022/08/18 05:44:04;;;;;;;;;6.00;5.25;;;;;-147.14;100.00;58812.66;5054211;28;8797;-69
2022/08/18 05:46:38;;;;;;;;;6.75;6.00;;;;;-147.14;100.00;58812.66;5039610;28;8813;-68
2022/08/18 05:49:04;;;;;;;;;6.00;4.00;;;;;-147.14;100.00;58812.66;5041181;28;8898;-68
2022/08/18 05:51:33;;;;;;;;;8.00;6.00;;;;;-147.14;100.00;58812.66;5051944;28;17884;-68
2022/08/18 05:56:46;;;;;;;;;5.50;5.50;;;;;-147.14;100.00;58812.66;5039139;28;8790;-68
2022/08/18 05:59:35;;;;;;;;;7.00;7.00;;;;;-147.14;100.00;58812.66;5044425;28;8827;-68
2022/08/18 06:02:25;;;;;;;;;6.25;6.25;;;;;-147.14;100.00;58812.66;5049543;28;8827;-68
2022/08/18 06:04:54;;;;;;;;;5.25;5.25;;;;;-147.14;100.00;58812.66;5044643;28;8804;-68
2022/08/18 06:07:43;;;;;;;;;6.25;6.00;;;;;-147.14;100.00;58812.66;5036103;28;9809;-68
2022/08/18 06:10:10;;;;;;;;;8.25;7.25;;;;;-147.14;100.00;58812.66;5034657;28;8930;-68
2022/08/18 06:12:40;;;;;;;;;6.00;6.00;;;;;-147.14;100.00;58812.66;5053397;28;8923;-68
2022/08/18 06:15:11;;;;;;;;;5.75;5.75;;;;;-147.14;100.00;58812.66;5034686;28;9006;-68
2022/08/18 06:18:01;;;;;;;;;9.50;9.00;;;;;-147.14;100.00;58812.66;5053038;28;8919;-68
2022/08/18 06:20:39;;;;;;;;;10.25;8.25;;;;;-147.14;100.00;58812.66;5052427;28;8824;-68
2022/08/18 06:23:26;;;;;;;;;10.25;9.25;;;;;-147.14;100.00;58812.66;5053985;28;8848;-68
2022/08/18 06:26:16;;;;;;;;;10.50;9.00;;;;;-147.14;100.00;58812.66;5052761;28;8816;-68
2022/08/18 06:28:45;;;;;;;;;11.50;11.00;;;;;-147.14;100.00;58812.66;5045164;28;8820;-70
2022/08/18 06:31:35;;;;;;;;;7.25;7.25;;;;;-147.14;100.00;58812.66;5033563;28;8836;-68
2022/08/18 06:34:15;;;;;;;;;13.00;9.75;;;;;-147.14;100.00;58812.66;5033855;28;8784;-69
2022/08/18 06:36:52;;;;;;;;;8.25;8.25;;;;;-147.14;100.00;58812.66;5050192;28;8796;-68
2022/08/18 06:39:36;;;;;;;;;9.75;8.25;;;;;-147.14;100.00;58812.66;5051402;28;8816;-68
2022/08/18 06:42:04;;;;;;;;;14.50;14.50;;;;;-147.14;100.00;58812.66;5038632;28;8835;-68
2022/08/18 06:44:51;;;;;;;;;10.50;10.00;;;;;-147.14;100.00;58812.66;5057279;28;8820;-68
2022/08/18 06:47:27;;;;;;;;;14.50;14.50;;;;;-147.14;100.00;58812.66;5051871;28;8816;-66
2022/08/18 06:50:01;;;;;;;;;11.75;11.75;;;;;-147.14;100.00;58812.66;5051815;28;8804;-67
2022/08/18 06:52:36;;;;;;;;;12.75;11.25;;;;;-147.14;100.00;58812.66;5042570;28;8808;-66
2022/08/18 06:55:04;;;;;;;;;15.50;12.75;;;;;-147.14;100.00;58812.66;5055203;28;8813;-66
2022/08/18 06:57:29;;;;;;;;;13.75;13.75;;;;;-147.14;100.00;58812.66;5055357;28;8841;-66
2022/08/18 07:00:05;;;;;;;;;8.33;8.33;;;;;-147.14;100.00;58812.66;5056791;28;8840;-66
2022/08/18 07:02:42;;;;;;;;;14.25;13.00;;;;;-147.14;100.00;58812.66;5056895;28;8812;-66
2022/08/18 07:05:19;;;;;;;;;13.75;13.00;;;;;-147.14;100.00;58812.66;5055231;28;8934;-66
2022/08/18 07:07:45;;;;;;;;;11.25;10.75;;;;;-147.14;100.00;58812.66;5056117;28;8772;-66
2022/08/18 07:10:13;;;;;;;;;13.50;12.00;;;;;-147.14;100.00;58812.66;5039229;28;8816;-67
2022/08/18 07:12:39;;;;;;;;;11.00;11.00;;;;;-147.14;100.00;58812.66;5055168;28;8856;-66
2022/08/18 07:15:06;;;;;;;;;15.33;15.33;;;;;-147.14;100.00;58812.66;5056494;28;8893;-66
2022/08/18 07:17:38;;;;;;;;;15.75;15.75;;;;;-147.14;100.00;58812.66;5055715;28;8936;-66
2022/08/18 07:20:07;;;;;;;;;18.25;15.25;;;;;-147.14;100.00;58812.66;5051164;28;8808;-67
2022/08/18 07:23:00;;;;;;;;;14.50;13.00;;;;;-147.14;100.00;58812.66;5051728;28;8740;-66
2022/08/18 07:25:34;;;;;;;;;16.00;13.00;;;;;-147.14;100.00;58812.66;5040701;28;8876;-66
2022/08/18 07:28:01;;;;;;;;;14.00;11.75;;;;;-147.14;100.00;58812.66;5048396;28;8994;-68
2022/08/18 07:30:31;;;;;;;;;15.50;13.75;;;;;-147.14;100.00;58812.66;5057839;28;8824;-66
2022/08/18 07:33:10;;;;;;;;;17.00;14.75;;;;;-147.14;100.00;58812.66;5061941;28;8788;-66
2022/08/18 07:35:44;;;;;;;;;23.25;22.25;;;;;-147.14;100.00;58812.66;5055280;28;8820;-67
2022/08/18 07:38:16;;;;;;;;;13.75;13.75;;;;;-147.14;100.00;58812.66;5037064;28;8764;-67
2022/08/18 07:40:55;;;;;;;;;14.50;12.75;;;;;-147.14;100.00;58812.66;5043163;28;8826;-67
2022/08/18 07:43:38;;;;;;;;;15.25;12.25;;;;;-147.14;100.00;58812.66;5033204;28;8836;-67
2022/08/18 07:46:11;;;;;;;;;16.75;14.25;;;;;-147.14;100.00;58812.66;5034259;28;8866;-67
2022/08/18 07:48:36;;;;;;;;;15.00;13.75;;;;;-147.14;100.00;58812.66;5038247;28;8866;-67
2022/08/18 07:51:27;;;;;;;;;20.00;14.67;;;;;-147.14;100.00;58812.66;5055770;28;24865;-67
2022/08/18 07:54:03;;;;;;;;;19.25;19.25;;;;;-147.14;100.00;58812.66;5056020;28;8807;-67
2022/08/18 07:56:46;;;;;;;;;21.00;18.75;;;;;-147.14;100.00;58812.66;5056051;28;8817;-67
2022/08/18 07:59:39;;;;;;;;;18.75;18.00;;;;;-147.14;100.00;58812.66;5038065;28;8946;-68
2022/08/18 08:02:28;;;;;;;;;17.25;16.75;;;;;-147.14;100.00;58812.66;5038258;28;8835;-67
2022/08/18 08:05:09;;;;;;;;;17.25;16.25;;;;;-147.14;100.00;58812.66;5044860;28;8808;-68
2022/08/18 08:07:50;;;;;;;;;23.50;21.00;;;;;-147.14;100.00;58812.66;5049705;28;8855;-69
2022/08/18 08:10:42;;;;;;;;;22.50;22.50;;;;;-147.14;100.00;58812.66;5034288;28;8812;-65
2022/08/18 08:13:27;;;;;;;;;35.00;26.50;;;;;-147.14;100.00;58812.66;5026565;28;8808;-66
2022/08/18 08:16:14;;;;;;;;;16.75;15.25;;;;;-147.14;100.00;58812.66;5051438;28;8922;-67
2022/08/18 08:18:52;;;;;;;;;18.00;16.50;;;;;-147.14;100.00;58812.66;5035824;28;8827;-67
2022/08/18 08:21:20;;;;;;;;;18.00;14.75;;;;;-147.14;100.00;58812.66;5042118;28;9865;-67
2022/08/18 08:23:51;;;;;;;;;26.00;23.50;;;;;-147.14;100.00;58812.66;5052066;28;8840;-67
2022/08/18 08:26:26;;;;;;;;;21.25;21.25;;;;;-147.14;100.00;58812.66;5053754;28;8804;-67
2022/08/18 08:29:18;;;;;;;;;21.00;21.00;;;;;-147.14;100.00;58812.66;5061273;28;8836;-67
2022/08/18 08:32:22;;;;;;;;;18.25;17.00;;;;;-147.14;100.00;58812.66;5049663;28;8832;-67
2022/08/18 08:34:56;;;;;;;;;20.00;18.25;;;;;-147.14;100.00;58812.66;5023626;28;8846;-67
2022/08/18 08:37:57;;;;;;;;;21.00;20.00;;;;;-147.14;100.00;58812.66;5033938;28;8770;-67
2022/08/18 08:40:27;;;;;;;;;13.25;12.50;;;;;-147.14;100.00;58812.66;5051669;28;8812;-67
2022/08/18 08:43:06;;;;;;;;;16.00;15.50;;;;;-147.14;100.00;58812.66;5057746;28;8802;-67
2022/08/18 08:45:35;;;;;;;;;18.75;18.75;;;;;-147.14;100.00;58812.66;5040034;28;8820;-67
2022/08/18 08:48:04;;;;;;;;;17.00;16.75;;;;;-147.14;100.00;58812.66;5048408;28;8768;-67
2022/08/18 08:50:35;;;;;;;;;16.50;13.50;;;;;-147.14;100.00;58812.66;5059712;28;8760;-67
2022/08/18 08:53:06;;;;;;;;;19.50;19.25;;;;;-147.14;100.00;58812.66;5057793;28;8812;-67
2022/08/18 08:55:35;;;;;;;;;12.00;12.00;;;;;-147.14;100.00;58812.66;5047865;28;8840;-67
2022/08/18 08:58:06;;;;;;;;;15.50;15.50;;;;;-147.14;100.00;58812.66;5048701;28;8808;-67
2022/08/18 09:00:31;;;;;;;;;15.25;15.25;;;;;-147.14;100.00;58812.66;5050055;28;8820;-67
2022/08/18 09:03:00;;;;;;;;;15.00;14.33;;;;;-147.14;100.00;58812.66;5048666;28;8795;-67
2022/08/18 09:05:40;;;;;;;;;13.00;13.00;;;;;-147.14;100.00;58812.66;5054515;28;8812;-67
2022/08/18 09:08:27;;;;;;;;;14.50;13.25;;;;;-147.14;100.00;58812.66;5041671;28;8917;-67
2022/08/18 09:11:18;;;;;;;;;11.75;11.00;;;;;-147.14;100.00;58812.66;5057904;28;8856;-67
2022/08/18 09:14:09;;;;;;;;;17.75;15.50;;;;;-147.14;100.00;58812.66;5036514;28;8843;-67
2022/08/18 09:16:49;;;;;;;;;12.50;11.25;;;;;-147.14;100.00;58812.66;4999806;28;8934;-67
2022/08/18 09:19:30;;;;;;;;;21.50;18.25;;;;;-147.14;100.00;58812.66;5040011;28;8858;-67
2022/08/18 09:22:05;;;;;;;;;12.75;12.75;;;;;-147.14;100.00;58812.66;5037984;28;8911;-67
2022/08/18 09:24:38;;;;;;;;;15.00;13.00;;;;;-147.14;100.00;58812.66;5035215;28;8814;-67
2022/08/18 09:27:32;;;;;;;;;17.00;14.00;;;;;-147.14;100.00;58812.66;5052766;28;8823;-67
2022/08/18 09:29:59;;;;;;;;;18.50;17.50;;;;;-147.14;100.00;58812.66;5045670;28;8792;-68
2022/08/18 09:32:24;;;;;;;;;15.00;14.00;;;;;-147.14;100.00;58812.66;5051487;28;8808;-67
2022/08/18 09:35:11;;;;;;;;;12.67;11.33;;;;;-147.14;100.00;58812.66;5051816;28;8832;-67
2022/08/18 09:37:42;;;;;;;;;20.25;18.50;;;;;-147.14;100.00;58812.66;5039772;28;8855;-68
2022/08/18 09:43:43;;;;;;;;;16.25;16.25;;;;;-147.14;100.00;58812.66;5038303;28;8804;-69
2022/08/18 09:46:08;;;;;;;;;14.50;13.50;;;;;-147.14;100.00;58812.66;5049481;28;8967;-67
2022/08/18 09:48:35;;;;;;;;;16.00;16.00;;;;;-147.14;100.00;58812.66;5034958;28;23493;-67
2022/08/18 09:51:22;;;;;;;;;13.25;12.75;;;;;-147.14;100.00;58812.66;5053272;28;8804;-67
2022/08/18 09:54:12;;;;;;;;;14.25;14.25;;;;;-147.14;100.00;58812.66;5039422;28;8815;-67
2022/08/18 09:56:47;;;;;;;;;14.50;13.75;;;;;-147.14;100.00;58812.66;5058657;28;8761;-68
2022/08/18 09:59:33;;;;;;;;;18.75;15.50;;;;;-147.14;100.00;58812.66;5061431;28;8804;-67
2022/08/18 10:02:10;;;;;;;;;14.00;12.25;;;;;-147.14;100.00;58812.66;5043038;28;8827;-67
2022/08/18 10:04:50;;;;;;;;;13.50;12.25;;;;;-147.14;100.00;58812.66;5052868;28;8818;-67
2022/08/18 10:07:32;;;;;;;;;16.25;14.00;;;;;-147.14;100.00;58812.66;5035386;28;8943;-67
2022/08/18 10:10:24;;;;;;;;;15.25;14.25;;;;;-147.14;100.00;58812.66;5045540;28;8847;-67
2022/08/18 10:12:59;;;;;;;;;14.00;13.75;;;;;-147.14;100.00;58812.66;5056629;28;8794;-68
2022/08/18 10:15:35;;;;;;;;;13.00;13.00;;;;;-147.14;100.00;58812.66;5054418;28;8859;-67
2022/08/18 10:18:22;;;;;;;;;13.25;13.25;;;;;-147.14;100.00;58812.66;5046978;28;8829;-68
2022/08/18 10:20:48;;;;;;;;;16.00;13.75;;;;;-147.14;100.00;58812.66;5050101;28;8800;-67
2022/08/18 10:23:42;;;;;;;;;12.75;12.75;;;;;-147.14;100.00;58812.66;5053920;28;8919;-67
2022/08/18 10:26:30;;;;;;;;;14.75;14.75;;;;;-147.14;100.00;58812.66;5051450;28;8753;-67
2022/08/18 10:28:58;;;;;;;;;12.50;12.50;;;;;-147.14;100.00;58812.66;5028101;28;8877;-67
2022/08/18 10:31:25;;;;;;;;;8.75;8.75;;;;;-147.14;100.00;58812.66;5054335;28;8891;-67
2022/08/18 10:34:03;;;;;;;;;11.60;11.00;;;;;-147.14;100.00;58812.66;5055617;28;8824;-67
2022/08/18 10:36:57;;;;;;;;;11.50;11.50;;;;;-147.14;100.00;58812.66;5065149;28;8789;-67
2022/08/18 10:39:37;;;;;;;;;8.80;7.00;;;;;-147.14;100.00;58812.66;5034503;28;8807;-67
2022/08/18 10:42:11;;;;;;;;;12.25;12.25;;;;;-147.14;100.00;58812.66;5056801;28;8829;-67
2022/08/18 10:44:42;;;;;;;;;8.00;8.00;;;;;-147.14;100.00;58812.66;5061095;28;8822;-67
2022/08/18 10:47:18;;;;;;;;;10.80;10.80;;;;;-147.14;100.00;58812.66;5049441;28;8808;-67
2022/08/18 10:49:48;;;;;;;;;6.60;6.60;;;;;-147.14;100.00;58812.66;5048777;28;8844;-68
2022/08/18 10:52:35;;;;;;;;;10.00;10.00;;;;;-147.14;100.00;58812.66;5061936;28;8808;-67
2022/08/18 10:55:12;;;;;;;;;10.60;9.00;;;;;-147.14;100.00;58812.66;5056143;28;8742;-67
2022/08/18 10:58:22;;;;;;;;;8.60;8.60;;;;;-147.14;100.00;58812.66;5062740;28;8879;-67
2022/08/18 11:01:06;;;;;;;;;10.60;10.60;;;;;-147.14;100.00;58812.66;5033786;28;8824;-67
2022/08/18 11:03:54;;;;;;;;;11.00;11.00;;;;;-147.14;100.00;58812.66;5055553;28;8819;-67
2022/08/18 11:06:23;;;;;;;;;10.00;8.60;;;;;-147.14;100.00;58812.66;5057088;28;8796;-67
2022/08/18 11:08:50;;;;;;;;;6.60;6.60;;;;;-147.14;100.00;58812.66;5038633;28;8808;-68
2022/08/18 11:11:21;;;;;;;;;7.80;7.60;;;;;-147.14;100.00;58812.66;5038736;28;8808;-68
2022/08/18 11:13:52;;;;;;;;;11.60;9.80;;;;;-147.14;100.00;58812.66;5057171;28;8812;-67
2022/08/18 11:16:43;;;;;;;;;10.60;10.60;;;;;-147.14;100.00;58812.66;5056888;28;8870;-67
2022/08/18 11:19:13;;;;;;;;;8.20;8.20;;;;;-147.14;100.00;58812.66;5043367;28;8760;-67
2022/08/18 11:21:42;;;;;;;;;8.75;8.25;;;;;-147.14;100.00;58812.66;5058688;28;8898;-68
2022/08/18 11:24:10;;;;;;;;;8.40;8.40;;;;;-147.14;100.00;58812.66;5056177;28;8812;-67
2022/08/18 11:26:39;;;;;;;;;10.40;10.20;;;;;-147.14;100.00;58812.66;5050859;28;8808;-69
2022/08/18 11:29:27;;;;;;;;;7.80;7.80;;;;;-147.14;100.00;58812.66;5052961;28;8819;-69
2022/08/18 11:32:17;;;;;;;;;4.00;4.00;;;;;-147.14;100.00;58812.66;5055613;28;8927;-67
2022/08/18 11:34:49;;;;;;;;;7.40;7.40;;;;;-147.14;100.00;58812.66;5053025;28;8828;-67
2022/08/18 11:37:26;;;;;;;;;7.00;7.00;;;;;-147.14;100.00;58812.66;5040253;28;8796;-68
2022/08/18 11:39:56;;;;;;;;;7.40;7.40;;;;;-147.14;100.00;58812.66;5057567;28;9756;-68
2022/08/18 11:42:32;;;;;;;;;6.80;6.80;;;;;-147.14;100.00;58812.66;5057113;28;8828;-68
2022/08/18 11:45:06;;;;;;;;;9.40;9.40;;;;;-147.14;100.00;58812.66;5058620;28;8753;-68
2022/08/18 11:47:32;;;;;;;;;6.40;6.40;;;;;-147.14;100.00;58812.66;5055450;28;8841;-69
2022/08/18 11:50:07;;;;;;;;;6.00;6.00;;;;;-147.14;100.00;58812.66;5055865;28;8823;-68
2022/08/18 11:52:46;;;;;;;;;8.25;7.50;;;;;-147.14;100.00;58812.66;5041837;28;8792;-68
2022/08/18 11:55:29;;;;;;;;;5.60;5.60;;;;;-147.14;100.00;58812.66;5054178;28;8801;-69
2022/08/18 11:57:56;;;;;;;;;6.60;5.80;;;;;-147.14;100.00;58812.66;5051811;28;8848;-67
2022/08/18 12:00:37;;;;;;;;;8.00;8.00;;;;;-147.14;100.00;58812.66;5047690;28;8820;-69
2022/08/18 12:03:14;;;;;;;;;8.00;8.00;;;;;-147.14;100.00;58812.66;5048106;28;9758;-69
2022/08/18 12:05:41;;;;;;;;;6.80;6.80;;;;;-147.14;100.00;58812.66;5034639;28;8795;-69
2022/08/18 12:08:26;;;;;;;;;6.20;6.20;;;;;-147.14;100.00;58812.66;5050176;28;10331;-67
2022/08/18 12:11:25;;;;;;;;;5.40;5.40;;;;;-147.14;100.00;58812.66;5054928;28;9762;-69
2022/08/18 12:14:08;;;;;;;;;8.40;7.20;;;;;-147.14;100.00;58812.66;5028272;28;9741;-67
2022/08/18 12:16:34;;;;;;;;;8.00;6.20;;;;;-147.14;100.00;58812.66;5037048;28;8812;-67
2022/08/18 12:19:00;;;;;;;;;7.20;7.20;;;;;-147.14;100.00;58812.66;5056384;28;8820;-69
2022/08/18 12:21:26;;;;;;;;;5.75;5.75;;;;;-147.14;100.00;58812.66;5056752;28;8894;-67
2022/08/18 12:23:51;;;;;;;;;6.25;6.25;;;;;-147.14;100.00;58812.66;5066147;28;34304;-67
2022/08/18 12:26:17;;;;;;;;;4.50;4.50;;;;;-147.14;100.00;58812.66;5056404;28;8826;-67
2022/08/18 12:28:43;;;;;;;;;5.00;5.00;;;;;-147.14;100.00;58812.66;5054773;28;8832;-68
2022/08/18 12:31:08;;;;;;;;;6.80;6.80;;;;;-147.14;100.00;58812.66;5041673;28;8776;-68
2022/08/18 12:33:34;;;;;;;;;5.50;5.50;;;;;-147.14;100.00;58812.66;5054285;28;8959;-68
2022/08/18 12:36:01;;;;;;;;;6.00;6.00;;;;;-147.14;100.00;58812.66;5054385;28;9735;-68
2022/08/18 12:38:27;;;;;;;;;9.75;8.50;;;;;-147.14;100.00;58812.66;5055415;28;8753;-68
2022/08/18 12:40:52;;;;;;;;;7.00;7.00;;;;;-147.14;100.00;58812.66;5056976;28;9692;-68
2022/08/18 12:43:18;;;;;;;;;4.00;4.00;;;;;-147.14;100.00;58812.66;5056445;28;8933;-68
2022/08/18 12:45:43;;;;;;;;;4.75;4.75;;;;;-147.14;100.00;58812.66;5056145;28;8823;-68
2022/08/18 12:48:09;;;;;;;;;6.00;6.00;;;;;-147.14;100.00;58812.66;5055407;28;27385;-68
2022/08/18 12:50:36;;;;;;;;;3.75;3.50;;;;;-147.14;100.00;58812.66;5055220;28;8824;-68
2022/08/18 12:53:02;;;;;;;;;7.60;7.60;;;;;-147.14;100.00;58812.66;5053512;28;8804;-68
2022/08/18 12:55:30;;;;;;;;;4.00;4.00;;;;;-147.14;100.00;58812.66;5056140;28;9567;-68
2022/08/18 12:57:56;;;;;;;;;5.00;4.20;;;;;-147.14;100.00;58812.66;5055932;28;8927;-68
2022/08/18 13:00:21;;;;;;;;;6.33;6.33;;;;;-147.14;100.00;58812.66;5053611;28;36508;-68
2022/08/18 13:02:47;;;;;;;;;8.67;7.33;;;;;-147.14;100.00;58812.66;5056824;28;12458;-68
2022/08/18 13:05:12;;;;;;;;;5.67;5.67;;;;;-147.14;100.00;58812.66;5056038;28;8843;-68
2022/08/18 13:07:37;;;;;;;;;5.75;5.75;;;;;-147.14;100.00;58812.66;5055142;28;36401;-68
2022/08/18 13:10:03;;;;;;;;;7.75;6.50;;;;;-147.14;100.00;58812.66;5053748;28;22503;-68
2022/08/18 13:12:29;;;;;;;;;5.80;5.80;;;;;-147.14;100.00;58812.66;5054706;28;8799;-68
2022/08/18 13:14:54;;;;;;;;;6.00;6.00;;;;;-147.14;100.00;58812.66;5054669;28;32590;-67
2022/08/18 13:17:20;;;;;;;;;5.25;5.25;;;;;-147.14;100.00;58812.66;5056438;28;8808;-68
2022/08/18 13:19:46;;;;;;;;;5.25;5.25;;;;;-147.14;100.00;58812.66;5055054;28;8874;-68
2022/08/18 13:22:11;;;;;;;;;3.40;3.40;;;;;-147.14;100.00;58812.66;5056332;28;8805;-68
2022/08/18 13:24:37;;;;;;;;;5.25;5.25;;;;;-147.14;100.00;58812.66;5055235;28;8851;-68
2022/08/18 13:27:02;;;;;;;;;5.00;5.00;;;;;-147.14;100.00;58812.66;5053755;28;31237;-68
2022/08/18 13:29:27;;;;;;;;;6.00;6.00;;;;;-147.14;100.00;58812.66;5036595;28;8878;-70
2022/08/18 13:31:57;;;;;;;;;6.00;6.00;;;;;-147.14;100.00;58812.66;5043241;28;24489;-70
2022/08/18 13:34:26;;;;;;;;;6.00;4.60;;;;;-147.14;100.00;58812.66;5051291;28;8824;-68
2022/08/18 13:36:52;;;;;;;;;3.20;3.20;;;;;-147.14;100.00;58812.66;5028085;28;8802;-69
2022/08/18 13:39:20;;;;;;;;;6.20;6.20;;;;;-147.14;100.00;58812.66;5052864;28;8778;-69
2022/08/18 13:41:48;;;;;;;;;5.60;4.60;;;;;-147.14;100.00;58812.66;5057529;28;8797;-69
2022/08/18 13:44:17;;;;;;;;;4.00;4.00;;;;;-147.14;100.00;58812.66;5052053;28;9827;-69
2022/08/18 13:46:45;;;;;;;;;3.40;3.20;;;;;-147.14;100.00;58812.66;5050103;28;8820;-70
2022/08/18 13:49:14;;;;;;;;;7.20;7.20;;;;;-147.14;100.00;58812.66;5049934;28;9776;-69
2022/08/18 13:51:42;;;;;;;;;4.00;4.00;;;;;-147.14;100.00;58812.66;5041045;28;8842;-70
2022/08/18 13:54:08;;;;;;;;;4.80;4.80;;;;;-147.14;100.00;58812.66;5043548;28;8896;-69
2022/08/18 13:56:34;;;;;;;;;2.40;2.40;;;;;-147.14;100.00;58812.66;5039922;28;8797;-69
2022/08/18 13:58:59;;;;;;;;;3.33;3.33;;;;;-147.14;100.00;58812.66;5039797;28;9632;-68
2022/08/18 14:01:24;;;;;;;;;6.75;6.75;;;;;-147.14;100.00;58812.66;5049636;28;8824;-69
2022/08/18 14:03:49;;;;;;;;;7.75;6.25;;;;;-147.14;100.00;58812.66;5055371;28;32279;-68
2022/08/18 14:06:16;;;;;;;;;5.00;5.00;;;;;-147.14;100.00;58812.66;5068360;28;35206;-68
2022/08/18 14:08:41;;;;;;;;;5.00;5.00;;;;;-147.14;100.00;58812.66;5061992;28;8934;-69
2022/08/18 14:11:07;;;;;;;;;4.00;4.00;;;;;-147.14;100.00;58812.66;5043263;28;9052;-69
2022/08/18 14:13:33;;;;;;;;;7.20;7.20;;;;;-147.14;100.00;58812.66;5039276;28;8842;-68
2022/08/18 14:16:00;;;;;;;;;4.00;3.50;;;;;-147.14;100.00;58812.66;5059636;28;35166;-68
2022/08/18 14:18:26;;;;;;;;;5.00;5.00;;;;;-147.14;100.00;58812.66;5059715;28;9476;-68
2022/08/18 14:26:49;;;;;;;;;3.60;3.60;;;;;-147.14;100.00;58812.66;5003222;28;8923;-68
2022/08/18 14:29:15;;;;;;;;;3.60;3.60;;;;;-147.14;100.00;58812.66;5058133;28;8822;-68
2022/08/18 14:31:41;;;;;;;;;6.00;6.00;;;;;-147.14;100.00;58812.66;5057623;28;8874;-68
2022/08/18 14:34:07;;;;;;;;;6.33;6.33;;;;;-147.14;100.00;58812.66;5038024;28;8816;-68
2022/08/18 14:36:33;;;;;;;;;6.25;6.25;;;;;-147.14;100.00;58812.66;5056048;28;9586;-68
2022/08/18 14:38:59;;;;;;;;;5.00;5.00;;;;;-147.14;100.00;58812.66;5056636;28;8816;-68
2022/08/18 14:41:25;;;;;;;;;4.80;4.80;;;;;-147.14;100.00;58812.66;5054233;28;8804;-68
2022/08/18 14:43:51;;;;;;;;;7.33;6.00;;;;;-147.14;100.00;58812.66;5059585;28;8824;-68
2022/08/18 14:46:17;;;;;;;;;5.25;5.25;;;;;-147.14;100.00;58812.66;5056145;28;8817;-70
2022/08/18 14:48:42;;;;;;;;;6.00;4.00;;;;;-147.14;100.00;58812.66;5053556;28;8832;-70
2022/08/18 14:51:08;;;;;;;;;5.75;5.75;;;;;-147.14;100.00;58812.66;5054668;28;31146;-68
2022/08/18 14:53:35;;;;;;;;;6.25;6.25;;;;;-147.14;100.00;58812.66;5055856;28;8793;-68
2022/08/18 14:56:02;;;;;;;;;7.75;7.00;;;;;-147.14;100.00;58812.66;5055194;28;8854;-68
2022/08/18 14:58:30;;;;;;;;;6.00;5.75;;;;;-147.14;100.00;58812.66;5037822;28;8915;-68
2022/08/18 15:00:58;;;;;;;;;6.00;6.00;;;;;-147.14;100.00;58812.66;5053911;28;8804;-68
2022/08/18 15:03:26;;;;;;;;;6.00;4.75;;;;;-147.14;100.00;58812.66;5053943;28;8886;-68
2022/08/18 15:05:51;;;;;;;;;4.25;4.25;;;;;-147.14;100.00;58812.66;5055892;28;8811;-68
2022/08/18 15:08:18;;;;;;;;;5.50;4.50;;;;;-147.14;100.00;58812.66;5053729;28;9001;-68
2022/08/18 15:10:44;;;;;;;;;6.25;4.75;;;;;-147.14;100.00;58812.66;5055201;28;8807;-68
2022/08/18 15:13:09;;;;;;;;;7.67;7.67;;;;;-147.14;100.00;58812.66;5052674;28;9591;-68
2022/08/18 15:15:35;;;;;;;;;6.33;6.33;;;;;-147.14;100.00;58812.66;5040652;28;11530;-68
2022/08/18 15:18:00;;;;;;;;;5.25;5.25;;;;;-147.14;100.00;58812.66;5054435;28;8836;-68
2022/08/18 15:20:26;;;;;;;;;6.50;5.00;;;;;-147.14;100.00;58812.66;5054596;28;8832;-68
2022/08/18 15:25:41;;;;;;;;;7.75;6.50;;;;;-147.14;100.00;58812.66;5054470;28;8792;-68
2022/08/18 15:28:21;;;;;;;;;5.00;5.00;;;;;-147.14;100.00;58812.66;5057165;28;8828;-68
2022/08/18 15:30:51;;;;;;;;;3.80;2.80;;;;;-147.14;100.00;58812.66;5059212;28;8810;-66
2022/08/18 15:33:19;;;;;;;;;7.40;3.80;;;;;-147.14;100.00;58812.66;5051130;28;8824;-65
2022/08/18 15:35:49;;;;;;;;;4.75;4.75;;;;;-147.14;100.00;58812.66;5057473;28;8809;-65
2022/08/18 15:38:17;;;;;;;;;3.00;3.00;;;;;-147.14;100.00;58812.66;5036893;28;8820;-65
2022/08/18 15:40:57;;;;;;;;;5.00;4.00;;;;;-147.14;100.00;58812.66;5062676;28;8874;-66
2022/08/18 15:43:23;;;;;;;;;4.00;4.00;;;;;-147.14;100.00;58812.66;5051421;28;8919;-65
2022/08/18 15:45:49;;;;;;;;;5.20;5.00;;;;;-147.14;100.00;58812.66;5058218;28;8805;-65
2022/08/18 15:48:16;;;;;;;;;5.00;5.00;;;;;-147.14;100.00;58812.66;5050428;28;8828;-65
2022/08/18 15:50:43;;;;;;;;;3.20;3.20;;;;;-147.14;100.00;58812.66;5060492;28;8807;-65
2022/08/18 15:53:10;;;;;;;;;3.40;3.40;;;;;-147.14;100.00;58812.66;5057435;28;8843;-65
2022/08/18 15:55:37;;;;;;;;;3.80;3.80;;;;;-147.14;100.00;58812.66;5067197;28;8863;-65
2022/08/18 15:58:04;;;;;;;;;4.20;4.20;;;;;-147.14;100.00;58812.66;5055360;28;8812;-66
2022/08/18 16:00:31;;;;;;;;;3.00;3.00;;;;;-147.14;100.00;58812.66;5062265;28;8819;-65
2022/08/18 16:03:03;;;;;;;;;4.00;4.00;;;;;-147.14;100.00;58812.66;5042474;28;8808;-66
2022/08/18 16:05:31;;;;;;;;;3.80;3.80;;;;;-147.14;100.00;58812.66;5046109;28;9864;-65
2022/08/18 16:07:58;;;;;;;;;3.00;3.00;;;;;-147.14;100.00;58812.66;5050737;28;8808;-65
2022/08/18 16:10:26;;;;;;;;;3.20;3.20;;;;;-147.14;100.00;58812.66;5054184;28;8928;-65
2022/08/18 16:12:52;;;;;;;;;3.80;3.80;;;;;-147.14;100.00;58812.66;5054750;28;8808;-65
2022/08/18 16:15:20;;;;;;;;;4.75;4.75;;;;;-147.14;100.00;58812.66;5070144;28;8941;-65
2022/08/18 16:17:46;;;;;;;;;2.80;2.80;;;;;-147.14;100.00;58812.66;5051618;28;8850;-65
2022/08/18 16:20:13;;;;;;;;;3.00;3.00;;;;;-147.14;100.00;58812.66;5048204;28;8871;-65
2022/08/18 16:22:38;;;;;;;;;4.00;4.00;;;;;-147.14;100.00;58812.66;5053805;28;8756;-65